AAY2973 KSFB-KPSM
Flight info
| Callsign | AAY2973 |
|---|---|
| Flight time | 2h 24m |
| Altitude | 35000 |
| Route | ATLAS LENDS GRUBR Y299 SEELO WAALT Q131 EARZZ JAMIE Q481 DPK FOXWD KLANE TTERI REMDG |
| Aircraft | A320/M-SDE3FGHIRWY/LB1 |
Departure
| Time | 2026-05-07 12:17 |
|---|---|
| Airport | Orlando Sanford International Airport (KSFB) |
Arrival
| Time | 2026-05-07 14:42 |
|---|---|
| Airport | Portsmouth International Airport at Pease (KPSM) |
| Time | Latitude | Longitude | Altitude | Speed | Heading |
|---|---|---|---|---|---|
| 2026-05-07 11:52 | 28.77646 | -81.24633 | 64 ft | 0 kts | 131° |
| 2026-05-07 12:05 | 28.77651 | -81.24640 | 59 ft | 2 kts | 131° |
| 2026-05-07 12:06 | 28.77663 | -81.24654 | 55 ft | 2 kts | 131° |
| 2026-05-07 12:06 | 28.77674 | -81.24669 | 55 ft | 2 kts | 131° |
| 2026-05-07 12:06 | 28.77684 | -81.24685 | 56 ft | 3 kts | 102° |
| 2026-05-07 12:06 | 28.77685 | -81.24705 | 56 ft | 3 kts | 66° |
| 2026-05-07 12:07 | 28.77682 | -81.24713 | 59 ft | 0 kts | 61° |
| 2026-05-07 12:10 | 28.77710 | -81.24681 | 58 ft | 9 kts | 36° |
| 2026-05-07 12:10 | 28.77754 | -81.24643 | 59 ft | 7 kts | 53° |
| 2026-05-07 12:11 | 28.77763 | -81.24582 | 61 ft | 12 kts | 90° |
| 2026-05-07 12:11 | 28.77763 | -81.24455 | 64 ft | 17 kts | 90° |
| 2026-05-07 12:11 | 28.77763 | -81.24313 | 64 ft | 18 kts | 90° |
| 2026-05-07 12:11 | 28.77763 | -81.24163 | 64 ft | 20 kts | 90° |
| 2026-05-07 12:12 | 28.77764 | -81.24003 | 64 ft | 21 kts | 90° |
| 2026-05-07 12:12 | 28.77764 | -81.23834 | 64 ft | 22 kts | 90° |
| 2026-05-07 12:12 | 28.77764 | -81.23657 | 64 ft | 23 kts | 90° |
| 2026-05-07 12:12 | 28.77766 | -81.23503 | 63 ft | 12 kts | 76° |
| 2026-05-07 12:13 | 28.77828 | -81.23478 | 59 ft | 10 kts | 359° |
| 2026-05-07 12:13 | 28.77928 | -81.23478 | 60 ft | 15 kts | 0° |
| 2026-05-07 12:13 | 28.78010 | -81.23446 | 62 ft | 13 kts | 73° |
| 2026-05-07 12:13 | 28.78012 | -81.23352 | 61 ft | 11 kts | 90° |
| 2026-05-07 12:14 | 28.78012 | -81.23267 | 62 ft | 12 kts | 90° |
| 2026-05-07 12:14 | 28.78012 | -81.23130 | 58 ft | 20 kts | 90° |
| 2026-05-07 12:14 | 28.78012 | -81.22969 | 60 ft | 21 kts | 90° |
| 2026-05-07 12:14 | 28.78012 | -81.22798 | 63 ft | 22 kts | 90° |
| 2026-05-07 12:15 | 28.78013 | -81.22619 | 61 ft | 23 kts | 90° |
| 2026-05-07 12:15 | 28.78013 | -81.22496 | 64 ft | 24 kts | 90° |
| 2026-05-07 12:15 | 28.78014 | -81.22246 | 61 ft | 19 kts | 89° |
| 2026-05-07 12:15 | 28.78029 | -81.22184 | 60 ft | 11 kts | 46° |
| 2026-05-07 12:16 | 28.78094 | -81.22173 | 62 ft | 10 kts | 359° |
| 2026-05-07 12:16 | 28.78150 | -81.22173 | 60 ft | 6 kts | 358° |
| 2026-05-07 12:16 | 28.78179 | -81.22216 | 58 ft | 8 kts | 275° |
| 2026-05-07 12:16 | 28.78178 | -81.22386 | 61 ft | 51 kts | 270° |
| 2026-05-07 12:17 | 28.78177 | -81.23063 | 61 ft | 117 kts | 270° |
| 2026-05-07 12:17 | 28.78176 | -81.24189 | 68 ft | 166 kts | 270° |
| 2026-05-07 12:17 | 28.78183 | -81.25573 | 504 ft | 177 kts | 268° |
| 2026-05-07 12:17 | 28.78246 | -81.26973 | 1267 ft | 178 kts | 271° |
| 2026-05-07 12:18 | 28.78359 | -81.28469 | 1667 ft | 201 kts | 272° |
| 2026-05-07 12:18 | 28.78489 | -81.30136 | 1965 ft | 223 kts | 273° |
| 2026-05-07 12:18 | 28.78627 | -81.31924 | 2679 ft | 228 kts | 273° |
| 2026-05-07 12:18 | 28.78795 | -81.33729 | 3498 ft | 231 kts | 281° |
| 2026-05-07 12:19 | 28.79538 | -81.35412 | 4039 ft | 253 kts | 309° |
| 2026-05-07 12:19 | 28.81051 | -81.36579 | 4530 ft | 275 kts | 340° |
| 2026-05-07 12:19 | 28.82973 | -81.36806 | 5251 ft | 285 kts | 8° |
| 2026-05-07 12:19 | 28.84812 | -81.36025 | 6005 ft | 291 kts | 35° |
| 2026-05-07 12:20 | 28.86214 | -81.34365 | 6750 ft | 295 kts | 62° |
| 2026-05-07 12:20 | 28.86901 | -81.32174 | 7446 ft | 296 kts | 80° |
| 2026-05-07 12:20 | 28.87271 | -81.29850 | 8205 ft | 300 kts | 82° |
| 2026-05-07 12:20 | 28.87599 | -81.27489 | 8921 ft | 304 kts | 83° |
| 2026-05-07 12:21 | 28.87917 | -81.25087 | 9635 ft | 308 kts | 83° |
| 2026-05-07 12:21 | 28.88231 | -81.22636 | 10203 ft | 319 kts | 83° |
| 2026-05-07 12:21 | 28.88536 | -81.20041 | 10370 ft | 342 kts | 86° |
| 2026-05-07 12:21 | 28.88296 | -81.17284 | 10547 ft | 359 kts | 109° |
| 2026-05-07 12:22 | 28.87218 | -81.14699 | 11017 ft | 365 kts | 122° |
| 2026-05-07 12:22 | 28.85929 | -81.12186 | 11627 ft | 369 kts | 123° |
| 2026-05-07 12:22 | 28.84610 | -81.09655 | 12264 ft | 373 kts | 123° |
| 2026-05-07 12:22 | 28.83272 | -81.07100 | 12895 ft | 378 kts | 123° |
| 2026-05-07 12:23 | 28.81913 | -81.04515 | 13485 ft | 382 kts | 123° |
| 2026-05-07 12:23 | 28.80537 | -81.01910 | 14034 ft | 386 kts | 123° |
| 2026-05-07 12:23 | 28.79142 | -80.99274 | 14564 ft | 390 kts | 123° |
| 2026-05-07 12:23 | 28.77733 | -80.96614 | 15079 ft | 394 kts | 123° |
| 2026-05-07 12:24 | 28.76309 | -80.93928 | 15581 ft | 398 kts | 123° |
| 2026-05-07 12:24 | 28.74870 | -80.91215 | 16100 ft | 402 kts | 123° |
| 2026-05-07 12:24 | 28.73419 | -80.88480 | 16598 ft | 406 kts | 122° |
| 2026-05-07 12:24 | 28.71950 | -80.85714 | 17115 ft | 410 kts | 123° |
| 2026-05-07 12:25 | 28.70469 | -80.82922 | 17617 ft | 414 kts | 122° |
| 2026-05-07 12:25 | 28.68970 | -80.80100 | 18107 ft | 418 kts | 122° |
| 2026-05-07 12:25 | 28.67540 | -80.77205 | 18549 ft | 423 kts | 114° |
| 2026-05-07 12:25 | 28.66788 | -80.73957 | 18939 ft | 428 kts | 96° |
| 2026-05-07 12:26 | 28.66561 | -80.70565 | 19329 ft | 431 kts | 92° |
| 2026-05-07 12:26 | 28.66382 | -80.67188 | 19720 ft | 435 kts | 92° |
| 2026-05-07 12:26 | 28.66198 | -80.63686 | 20119 ft | 439 kts | 92° |
| 2026-05-07 12:26 | 28.66017 | -80.60250 | 20510 ft | 443 kts | 92° |
| 2026-05-07 12:27 | 28.65829 | -80.56732 | 20895 ft | 447 kts | 92° |
| 2026-05-07 12:27 | 28.65638 | -80.53187 | 21273 ft | 451 kts | 92° |
| 2026-05-07 12:27 | 28.65443 | -80.49614 | 21649 ft | 455 kts | 92° |
| 2026-05-07 12:27 | 28.65245 | -80.46005 | 22011 ft | 458 kts | 92° |
| 2026-05-07 12:28 | 28.65043 | -80.42367 | 22378 ft | 462 kts | 92° |
| 2026-05-07 12:28 | 28.64838 | -80.38705 | 22744 ft | 466 kts | 92° |
| 2026-05-07 12:28 | 28.64630 | -80.35013 | 23100 ft | 469 kts | 92° |
| 2026-05-07 12:28 | 28.64418 | -80.31291 | 23453 ft | 473 kts | 92° |
| 2026-05-07 12:29 | 28.64239 | -80.27541 | 23768 ft | 475 kts | 87° |
| 2026-05-07 12:29 | 28.64650 | -80.23826 | 24049 ft | 472 kts | 71° |
| 2026-05-07 12:29 | 28.65849 | -80.20379 | 24351 ft | 467 kts | 57° |
| 2026-05-07 12:29 | 28.67375 | -80.17108 | 24670 ft | 469 kts | 57° |
| 2026-05-07 12:30 | 28.68917 | -80.13826 | 24980 ft | 471 kts | 57° |
| 2026-05-07 12:30 | 28.70469 | -80.10531 | 25290 ft | 473 kts | 57° |
| 2026-05-07 12:30 | 28.72028 | -80.07224 | 25589 ft | 475 kts | 57° |
| 2026-05-07 12:30 | 28.73595 | -80.03897 | 25893 ft | 477 kts | 57° |
| 2026-05-07 12:31 | 28.75165 | -80.00554 | 26196 ft | 480 kts | 57° |
| 2026-05-07 12:31 | 28.76739 | -79.97188 | 26489 ft | 482 kts | 57° |
| 2026-05-07 12:31 | 28.78315 | -79.93806 | 26785 ft | 484 kts | 57° |
| 2026-05-07 12:31 | 28.79897 | -79.90407 | 27070 ft | 487 kts | 57° |
| 2026-05-07 12:32 | 28.81489 | -79.86994 | 27364 ft | 489 kts | 57° |
| 2026-05-07 12:32 | 28.83090 | -79.83564 | 27650 ft | 491 kts | 57° |
| 2026-05-07 12:32 | 28.84697 | -79.80118 | 27928 ft | 493 kts | 57° |
| 2026-05-07 12:32 | 28.86311 | -79.76652 | 28209 ft | 496 kts | 57° |
| 2026-05-07 12:33 | 28.89546 | -79.69672 | 28728 ft | 500 kts | 57° |
| 2026-05-07 12:33 | 28.91175 | -79.66161 | 28986 ft | 502 kts | 57° |
| 2026-05-07 12:33 | 28.92816 | -79.62629 | 29230 ft | 504 kts | 57° |
| 2026-05-07 12:34 | 28.94462 | -79.59090 | 29475 ft | 506 kts | 57° |
| 2026-05-07 12:34 | 28.96111 | -79.55534 | 29719 ft | 508 kts | 57° |
| 2026-05-07 12:34 | 28.97763 | -79.51958 | 29960 ft | 510 kts | 57° |
| 2026-05-07 12:34 | 28.99418 | -79.48366 | 30192 ft | 512 kts | 57° |
| 2026-05-07 12:35 | 29.01072 | -79.44769 | 30488 ft | 511 kts | 57° |
| 2026-05-07 12:35 | 29.02718 | -79.41183 | 30826 ft | 509 kts | 57° |
| 2026-05-07 12:35 | 29.04360 | -79.37612 | 31170 ft | 507 kts | 57° |
| 2026-05-07 12:35 | 29.06000 | -79.34050 | 31519 ft | 505 kts | 57° |
| 2026-05-07 12:36 | 29.07635 | -79.30501 | 31879 ft | 503 kts | 57° |
| 2026-05-07 12:36 | 29.09239 | -79.27018 | 32232 ft | 501 kts | 57° |
| 2026-05-07 12:36 | 29.10860 | -79.23494 | 32583 ft | 500 kts | 57° |
| 2026-05-07 12:36 | 29.12469 | -79.19985 | 32929 ft | 498 kts | 57° |
| 2026-05-07 12:37 | 29.14072 | -79.16479 | 33278 ft | 496 kts | 57° |
| 2026-05-07 12:37 | 29.15670 | -79.12990 | 33614 ft | 495 kts | 57° |
| 2026-05-07 12:37 | 29.17269 | -79.09507 | 33957 ft | 494 kts | 57° |
| 2026-05-07 12:37 | 29.18861 | -79.06033 | 34250 ft | 493 kts | 57° |
| 2026-05-07 12:38 | 29.20449 | -79.02560 | 34513 ft | 492 kts | 57° |
| 2026-05-07 12:38 | 29.22033 | -78.99089 | 34742 ft | 492 kts | 57° |
| 2026-05-07 12:38 | 29.23618 | -78.95613 | 34957 ft | 493 kts | 57° |
| 2026-05-07 12:38 | 29.25206 | -78.92128 | 35055 ft | 494 kts | 57° |
| 2026-05-07 12:39 | 29.28379 | -78.85146 | 35075 ft | 495 kts | 57° |
| 2026-05-07 12:39 | 29.31551 | -78.78147 | 35077 ft | 495 kts | 57° |
| 2026-05-07 12:40 | 29.35417 | -78.71792 | 35073 ft | 479 kts | 37° |
| 2026-05-07 12:40 | 29.40726 | -78.67508 | 35072 ft | 459 kts | 17° |
| 2026-05-07 12:41 | 29.43682 | -78.66251 | 35074 ft | 448 kts | 7° |
| 2026-05-07 12:41 | 29.46706 | -78.65579 | 35070 ft | 439 kts | 359° |
| 2026-05-07 12:41 | 29.52784 | -78.64740 | 35068 ft | 440 kts | 359° |
| 2026-05-07 12:42 | 29.58864 | -78.63887 | 35064 ft | 441 kts | 359° |
| 2026-05-07 12:42 | 29.64960 | -78.63014 | 35064 ft | 441 kts | 359° |
| 2026-05-07 12:43 | 29.71054 | -78.62154 | 35067 ft | 441 kts | 359° |
| 2026-05-07 12:43 | 29.77153 | -78.61284 | 35074 ft | 442 kts | 359° |
| 2026-05-07 12:44 | 29.83254 | -78.60422 | 35079 ft | 441 kts | 359° |
| 2026-05-07 12:44 | 29.89347 | -78.59556 | 35080 ft | 441 kts | 359° |
| 2026-05-07 12:45 | 29.95442 | -78.58691 | 35083 ft | 441 kts | 359° |
| 2026-05-07 12:45 | 30.01538 | -78.57822 | 35081 ft | 441 kts | 359° |
| 2026-05-07 12:46 | 30.07633 | -78.56954 | 35081 ft | 441 kts | 359° |
| 2026-05-07 12:46 | 30.13684 | -78.56096 | 35079 ft | 441 kts | 359° |
| 2026-05-07 12:47 | 30.19776 | -78.55221 | 35077 ft | 441 kts | 359° |
| 2026-05-07 12:47 | 30.25868 | -78.54348 | 35075 ft | 441 kts | 359° |
| 2026-05-07 12:48 | 30.31959 | -78.53472 | 35069 ft | 441 kts | 359° |
| 2026-05-07 12:48 | 30.38049 | -78.52612 | 35070 ft | 441 kts | 359° |
| 2026-05-07 12:49 | 30.44140 | -78.51740 | 35065 ft | 441 kts | 360° |
| 2026-05-07 12:49 | 30.50227 | -78.50759 | 35066 ft | 442 kts | 0° |
| 2026-05-07 12:50 | 30.56321 | -78.49729 | 35061 ft | 442 kts | 0° |
| 2026-05-07 12:50 | 30.62411 | -78.48723 | 35064 ft | 442 kts | 0° |
| 2026-05-07 12:51 | 30.68500 | -78.47737 | 35059 ft | 442 kts | 0° |
| 2026-05-07 12:51 | 30.74590 | -78.46758 | 35055 ft | 442 kts | 0° |
| 2026-05-07 12:52 | 30.80684 | -78.45777 | 35053 ft | 442 kts | 0° |
| 2026-05-07 12:52 | 30.86776 | -78.44783 | 35051 ft | 442 kts | 0° |
| 2026-05-07 12:53 | 30.92868 | -78.43786 | 35051 ft | 442 kts | 0° |
| 2026-05-07 12:53 | 30.98963 | -78.42785 | 35044 ft | 442 kts | 0° |
| 2026-05-07 12:54 | 31.05053 | -78.41788 | 35044 ft | 442 kts | 0° |
| 2026-05-07 12:54 | 31.11104 | -78.40796 | 35042 ft | 442 kts | 0° |
| 2026-05-07 12:55 | 31.17194 | -78.39799 | 35039 ft | 442 kts | 0° |
| 2026-05-07 12:55 | 31.23290 | -78.38791 | 35041 ft | 442 kts | 0° |
| 2026-05-07 12:56 | 31.29379 | -78.37786 | 35042 ft | 442 kts | 0° |
| 2026-05-07 12:56 | 31.35471 | -78.36787 | 35043 ft | 442 kts | 0° |
| 2026-05-07 12:57 | 31.41558 | -78.35793 | 35042 ft | 442 kts | 0° |
| 2026-05-07 12:57 | 31.47651 | -78.34782 | 35041 ft | 442 kts | 0° |
| 2026-05-07 12:58 | 31.53736 | -78.33776 | 35038 ft | 442 kts | 0° |
| 2026-05-07 12:58 | 31.59840 | -78.32771 | 35037 ft | 443 kts | 0° |
| 2026-05-07 12:59 | 31.65943 | -78.31760 | 35034 ft | 443 kts | 0° |
| 2026-05-07 12:59 | 31.72044 | -78.30743 | 35030 ft | 443 kts | 0° |
| 2026-05-07 13:00 | 31.78161 | -78.29723 | 35030 ft | 444 kts | 0° |
| 2026-05-07 13:00 | 31.84280 | -78.28710 | 35026 ft | 444 kts | 0° |
| 2026-05-07 13:01 | 31.90408 | -78.27693 | 35022 ft | 445 kts | 0° |
| 2026-05-07 13:01 | 31.96542 | -78.26671 | 35027 ft | 445 kts | 0° |
| 2026-05-07 13:02 | 32.02680 | -78.25644 | 35022 ft | 446 kts | 1° |
| 2026-05-07 13:02 | 32.08827 | -78.24423 | 35019 ft | 449 kts | 3° |
| 2026-05-07 13:03 | 32.14977 | -78.23024 | 35019 ft | 450 kts | 3° |
| 2026-05-07 13:03 | 32.21130 | -78.21637 | 35018 ft | 451 kts | 2° |
| 2026-05-07 13:04 | 32.27303 | -78.20296 | 35014 ft | 451 kts | 2° |
| 2026-05-07 13:04 | 32.32437 | -78.19201 | 35013 ft | 451 kts | 2° |
| 2026-05-07 13:05 | 32.38622 | -78.17875 | 35011 ft | 452 kts | 2° |
| 2026-05-07 13:05 | 32.44807 | -78.16534 | 35014 ft | 452 kts | 2° |
| 2026-05-07 13:06 | 32.52004 | -78.14961 | 35010 ft | 453 kts | 2° |
| 2026-05-07 13:06 | 32.57198 | -78.13833 | 35009 ft | 453 kts | 2° |
| 2026-05-07 13:07 | 32.63367 | -78.12492 | 35007 ft | 454 kts | 2° |
| 2026-05-07 13:07 | 32.69580 | -78.11137 | 35005 ft | 455 kts | 2° |
| 2026-05-07 13:08 | 32.75804 | -78.09778 | 34996 ft | 455 kts | 2° |
| 2026-05-07 13:08 | 32.82042 | -78.08415 | 34992 ft | 456 kts | 2° |
| 2026-05-07 13:09 | 32.88292 | -78.07042 | 34992 ft | 457 kts | 2° |
| 2026-05-07 13:09 | 32.94554 | -78.05670 | 34987 ft | 458 kts | 2° |
| 2026-05-07 13:10 | 33.00826 | -78.04293 | 34993 ft | 459 kts | 2° |
| 2026-05-07 13:10 | 33.07105 | -78.02914 | 34998 ft | 459 kts | 2° |
| 2026-05-07 13:11 | 33.13386 | -78.01535 | 34997 ft | 459 kts | 2° |
| 2026-05-07 13:11 | 33.19668 | -78.00143 | 34996 ft | 459 kts | 2° |
| 2026-05-07 13:12 | 33.25909 | -77.98762 | 34997 ft | 459 kts | 2° |
| 2026-05-07 13:12 | 33.32200 | -77.97387 | 35000 ft | 459 kts | 2° |
| 2026-05-07 13:13 | 33.38480 | -77.95995 | 35002 ft | 459 kts | 2° |
| 2026-05-07 13:13 | 33.44763 | -77.94592 | 35003 ft | 459 kts | 2° |
| 2026-05-07 13:14 | 33.51042 | -77.93187 | 35006 ft | 459 kts | 2° |
| 2026-05-07 13:14 | 33.57322 | -77.91792 | 35004 ft | 459 kts | 2° |
| 2026-05-07 13:15 | 33.63602 | -77.90396 | 34997 ft | 459 kts | 2° |
| 2026-05-07 13:15 | 33.69882 | -77.89001 | 35004 ft | 459 kts | 2° |
| 2026-05-07 13:16 | 33.76163 | -77.87596 | 35010 ft | 459 kts | 2° |
| 2026-05-07 13:16 | 33.82440 | -77.86169 | 35008 ft | 460 kts | 2° |
| 2026-05-07 13:17 | 33.88710 | -77.84591 | 35004 ft | 461 kts | 3° |
| 2026-05-07 13:17 | 33.94974 | -77.82964 | 35002 ft | 460 kts | 3° |
| 2026-05-07 13:18 | 34.01238 | -77.81367 | 35001 ft | 460 kts | 3° |
| 2026-05-07 13:18 | 34.07504 | -77.79792 | 34980 ft | 460 kts | 3° |
| 2026-05-07 13:19 | 34.13773 | -77.78223 | 34973 ft | 460 kts | 2° |
| 2026-05-07 13:19 | 34.20049 | -77.76635 | 34971 ft | 461 kts | 3° |
| 2026-05-07 13:20 | 34.26331 | -77.75033 | 34969 ft | 461 kts | 3° |
| 2026-05-07 13:20 | 34.32610 | -77.73430 | 34970 ft | 461 kts | 3° |
| 2026-05-07 13:21 | 34.38899 | -77.71835 | 34966 ft | 462 kts | 3° |
| 2026-05-07 13:21 | 34.45195 | -77.70238 | 34964 ft | 462 kts | 3° |
| 2026-05-07 13:22 | 34.51496 | -77.68629 | 34958 ft | 463 kts | 3° |
| 2026-05-07 13:22 | 34.57752 | -77.66483 | 34949 ft | 479 kts | 16° |
| 2026-05-07 13:23 | 34.63768 | -77.62904 | 34940 ft | 482 kts | 18° |
| 2026-05-07 13:23 | 34.69755 | -77.59319 | 34930 ft | 483 kts | 18° |
| 2026-05-07 13:24 | 34.75799 | -77.55710 | 34927 ft | 484 kts | 18° |
| 2026-05-07 13:24 | 34.81855 | -77.52090 | 34930 ft | 486 kts | 18° |
| 2026-05-07 13:25 | 34.87922 | -77.48448 | 34931 ft | 487 kts | 18° |
| 2026-05-07 13:25 | 34.94009 | -77.44790 | 34930 ft | 488 kts | 18° |
| 2026-05-07 13:26 | 35.00108 | -77.41113 | 34930 ft | 490 kts | 17° |
| 2026-05-07 13:26 | 35.06226 | -77.37429 | 34932 ft | 491 kts | 17° |
| 2026-05-07 13:27 | 35.12358 | -77.33741 | 34929 ft | 492 kts | 17° |
| 2026-05-07 13:27 | 35.18503 | -77.30029 | 34928 ft | 493 kts | 17° |
| 2026-05-07 13:28 | 35.24660 | -77.26290 | 34929 ft | 495 kts | 17° |
| 2026-05-07 13:28 | 35.30828 | -77.22540 | 34929 ft | 495 kts | 17° |
| 2026-05-07 13:29 | 35.36963 | -77.18810 | 34923 ft | 496 kts | 17° |
| 2026-05-07 13:29 | 35.43192 | -77.15016 | 34925 ft | 497 kts | 17° |
| 2026-05-07 13:30 | 35.49349 | -77.11258 | 34928 ft | 498 kts | 16° |
| 2026-05-07 13:30 | 35.55561 | -77.07458 | 34932 ft | 499 kts | 16° |
| 2026-05-07 13:31 | 35.61828 | -77.03622 | 34933 ft | 500 kts | 16° |
| 2026-05-07 13:31 | 35.68058 | -76.99806 | 34935 ft | 500 kts | 16° |
| 2026-05-07 13:32 | 35.74247 | -76.96009 | 34938 ft | 501 kts | 16° |
| 2026-05-07 13:32 | 35.80479 | -76.92169 | 34935 ft | 501 kts | 16° |
| 2026-05-07 13:33 | 35.86711 | -76.88322 | 34938 ft | 501 kts | 15° |
| 2026-05-07 13:33 | 35.92959 | -76.84512 | 34942 ft | 499 kts | 13° |
| 2026-05-07 13:34 | 36.02475 | -76.79595 | 34942 ft | 492 kts | 9° |
| 2026-05-07 13:35 | 36.08845 | -76.76479 | 34945 ft | 493 kts | 10° |
| 2026-05-07 13:35 | 36.15190 | -76.73243 | 34940 ft | 494 kts | 11° |
| 2026-05-07 13:36 | 36.21519 | -76.69930 | 34933 ft | 494 kts | 11° |
| 2026-05-07 13:36 | 36.27846 | -76.66616 | 34927 ft | 493 kts | 10° |
| 2026-05-07 13:37 | 36.34170 | -76.63327 | 34917 ft | 493 kts | 10° |
| 2026-05-07 13:37 | 36.40493 | -76.60047 | 34923 ft | 493 kts | 10° |
| 2026-05-07 13:38 | 36.46825 | -76.56740 | 34931 ft | 494 kts | 11° |
| 2026-05-07 13:38 | 36.53165 | -76.53427 | 34940 ft | 495 kts | 11° |
| 2026-05-07 13:39 | 36.59518 | -76.50099 | 34942 ft | 496 kts | 11° |
| 2026-05-07 13:39 | 36.65886 | -76.46754 | 34945 ft | 497 kts | 11° |
| 2026-05-07 13:40 | 36.72267 | -76.43404 | 34949 ft | 498 kts | 11° |
| 2026-05-07 13:40 | 36.78659 | -76.40038 | 34953 ft | 500 kts | 11° |
| 2026-05-07 13:41 | 36.85068 | -76.36616 | 34954 ft | 501 kts | 11° |
| 2026-05-07 13:41 | 36.91475 | -76.33148 | 34946 ft | 502 kts | 11° |
| 2026-05-07 13:42 | 36.97887 | -76.29664 | 34956 ft | 502 kts | 11° |
| 2026-05-07 13:42 | 37.04303 | -76.26194 | 34961 ft | 502 kts | 10° |
| 2026-05-07 13:43 | 37.10722 | -76.22725 | 34967 ft | 503 kts | 10° |
| 2026-05-07 13:43 | 37.17143 | -76.19238 | 34970 ft | 502 kts | 10° |
| 2026-05-07 13:44 | 37.23552 | -76.15745 | 34966 ft | 502 kts | 11° |
| 2026-05-07 13:44 | 37.29954 | -76.12249 | 34961 ft | 502 kts | 11° |
| 2026-05-07 13:45 | 37.36354 | -76.08764 | 34959 ft | 501 kts | 10° |
| 2026-05-07 13:45 | 37.42757 | -76.05270 | 34948 ft | 502 kts | 11° |
| 2026-05-07 13:46 | 37.49158 | -76.01766 | 34943 ft | 502 kts | 11° |
| 2026-05-07 13:46 | 37.55573 | -75.98247 | 34945 ft | 503 kts | 11° |
| 2026-05-07 13:47 | 37.62001 | -75.94704 | 34944 ft | 505 kts | 11° |
| 2026-05-07 13:47 | 37.68448 | -75.91152 | 34947 ft | 506 kts | 10° |
| 2026-05-07 13:48 | 37.74912 | -75.87588 | 34959 ft | 508 kts | 10° |
| 2026-05-07 13:48 | 37.81391 | -75.84011 | 34959 ft | 509 kts | 10° |
| 2026-05-07 13:49 | 37.87846 | -75.80435 | 34958 ft | 510 kts | 10° |
| 2026-05-07 13:49 | 37.94349 | -75.76816 | 34955 ft | 511 kts | 10° |
| 2026-05-07 13:50 | 38.00867 | -75.73184 | 34960 ft | 512 kts | 10° |
| 2026-05-07 13:50 | 38.07392 | -75.69545 | 34965 ft | 512 kts | 10° |
| 2026-05-07 13:51 | 38.13923 | -75.65905 | 34961 ft | 513 kts | 10° |
| 2026-05-07 13:51 | 38.20470 | -75.62255 | 34969 ft | 514 kts | 10° |
| 2026-05-07 13:52 | 38.27027 | -75.58588 | 34976 ft | 515 kts | 10° |
| 2026-05-07 13:52 | 38.33587 | -75.54913 | 34973 ft | 515 kts | 10° |
| 2026-05-07 13:53 | 38.40148 | -75.51216 | 34918 ft | 515 kts | 10° |
| 2026-05-07 13:53 | 38.43420 | -75.49365 | 34686 ft | 514 kts | 10° |
| 2026-05-07 13:53 | 38.46692 | -75.47513 | 34450 ft | 514 kts | 10° |
| 2026-05-07 13:53 | 38.49964 | -75.45660 | 34231 ft | 516 kts | 10° |
| 2026-05-07 13:54 | 38.53250 | -75.43800 | 34015 ft | 517 kts | 10° |
| 2026-05-07 13:54 | 38.55428 | -75.42568 | 33848 ft | 517 kts | 10° |
| 2026-05-07 13:54 | 38.58720 | -75.40706 | 33591 ft | 518 kts | 10° |
| 2026-05-07 13:54 | 38.62021 | -75.38838 | 33334 ft | 519 kts | 11° |
| 2026-05-07 13:55 | 38.65326 | -75.36965 | 33078 ft | 520 kts | 11° |
| 2026-05-07 13:55 | 38.68637 | -75.35085 | 32944 ft | 520 kts | 11° |
| 2026-05-07 13:55 | 38.71952 | -75.33199 | 32987 ft | 522 kts | 11° |
| 2026-05-07 13:56 | 38.78550 | -75.29172 | 32983 ft | 536 kts | 19° |
| 2026-05-07 13:56 | 38.84953 | -75.24228 | 32976 ft | 538 kts | 20° |
| 2026-05-07 13:57 | 38.91359 | -75.19255 | 32981 ft | 538 kts | 19° |
| 2026-05-07 13:57 | 38.97766 | -75.14287 | 32981 ft | 538 kts | 19° |
| 2026-05-07 13:58 | 39.04168 | -75.09320 | 32990 ft | 538 kts | 19° |
| 2026-05-07 13:58 | 39.10579 | -75.04324 | 32991 ft | 538 kts | 19° |
| 2026-05-07 13:59 | 39.16982 | -74.99322 | 32983 ft | 539 kts | 20° |
| 2026-05-07 13:59 | 39.20080 | -74.96498 | 32964 ft | 550 kts | 27° |
| 2026-05-07 13:59 | 39.23099 | -74.93472 | 32973 ft | 551 kts | 28° |
| 2026-05-07 14:00 | 39.29130 | -74.87353 | 32971 ft | 552 kts | 28° |
| 2026-05-07 14:00 | 39.35151 | -74.81189 | 32961 ft | 553 kts | 28° |
| 2026-05-07 14:01 | 39.41184 | -74.75028 | 32960 ft | 553 kts | 28° |
| 2026-05-07 14:01 | 39.47232 | -74.68857 | 32955 ft | 554 kts | 28° |
| 2026-05-07 14:02 | 39.53246 | -74.62708 | 32953 ft | 555 kts | 28° |
| 2026-05-07 14:02 | 39.59339 | -74.56450 | 32954 ft | 556 kts | 28° |
| 2026-05-07 14:03 | 39.65412 | -74.50200 | 32957 ft | 557 kts | 28° |
| 2026-05-07 14:03 | 39.71451 | -74.43968 | 32960 ft | 559 kts | 28° |
| 2026-05-07 14:04 | 39.77540 | -74.37675 | 32962 ft | 560 kts | 28° |
| 2026-05-07 14:04 | 39.83640 | -74.31364 | 32951 ft | 561 kts | 28° |
| 2026-05-07 14:05 | 39.89748 | -74.25017 | 32960 ft | 563 kts | 28° |
| 2026-05-07 14:05 | 39.95873 | -74.18636 | 32970 ft | 564 kts | 28° |
| 2026-05-07 14:06 | 40.02002 | -74.12234 | 32968 ft | 565 kts | 28° |
| 2026-05-07 14:06 | 40.08142 | -74.05810 | 32967 ft | 566 kts | 28° |
| 2026-05-07 14:07 | 40.14283 | -73.99379 | 32966 ft | 566 kts | 28° |
| 2026-05-07 14:07 | 40.20440 | -73.92923 | 32961 ft | 567 kts | 28° |
| 2026-05-07 14:08 | 40.26591 | -73.86446 | 32961 ft | 568 kts | 28° |
| 2026-05-07 14:08 | 40.32740 | -73.79948 | 32966 ft | 568 kts | 28° |
| 2026-05-07 14:09 | 40.38891 | -73.73432 | 32960 ft | 568 kts | 28° |
| 2026-05-07 14:09 | 40.45034 | -73.66902 | 32967 ft | 568 kts | 28° |
| 2026-05-07 14:10 | 40.51178 | -73.60364 | 32959 ft | 568 kts | 28° |
| 2026-05-07 14:10 | 40.57316 | -73.53826 | 32939 ft | 568 kts | 28° |
| 2026-05-07 14:11 | 40.63449 | -73.47272 | 32931 ft | 568 kts | 28° |
| 2026-05-07 14:11 | 40.69519 | -73.40760 | 32933 ft | 567 kts | 28° |
| 2026-05-07 14:12 | 40.75640 | -73.34185 | 32938 ft | 567 kts | 28° |
| 2026-05-07 14:12 | 40.81494 | -73.27048 | 32931 ft | 582 kts | 39° |
| 2026-05-07 14:13 | 40.86946 | -73.19143 | 32926 ft | 582 kts | 39° |
| 2026-05-07 14:13 | 40.92403 | -73.11231 | 32922 ft | 582 kts | 39° |
| 2026-05-07 14:14 | 40.97857 | -73.03306 | 32927 ft | 583 kts | 39° |
| 2026-05-07 14:14 | 41.03301 | -72.95346 | 32939 ft | 583 kts | 39° |
| 2026-05-07 14:15 | 41.08742 | -72.87378 | 32932 ft | 583 kts | 39° |
| 2026-05-07 14:15 | 41.14190 | -72.79399 | 32930 ft | 583 kts | 39° |
| 2026-05-07 14:16 | 41.19632 | -72.71408 | 32934 ft | 584 kts | 39° |
| 2026-05-07 14:16 | 41.25068 | -72.63399 | 32915 ft | 584 kts | 39° |
| 2026-05-07 14:17 | 41.30490 | -72.55369 | 32929 ft | 584 kts | 39° |
| 2026-05-07 14:17 | 41.35904 | -72.47328 | 32931 ft | 583 kts | 39° |
| 2026-05-07 14:18 | 41.41325 | -72.39275 | 32660 ft | 585 kts | 39° |
| 2026-05-07 14:18 | 41.44035 | -72.35241 | 32146 ft | 584 kts | 40° |
| 2026-05-07 14:18 | 41.46742 | -72.31197 | 31662 ft | 584 kts | 40° |
| 2026-05-07 14:18 | 41.49437 | -72.27166 | 31163 ft | 581 kts | 40° |
| 2026-05-07 14:19 | 41.52115 | -72.23151 | 30684 ft | 577 kts | 41° |
| 2026-05-07 14:19 | 41.54777 | -72.19150 | 30205 ft | 574 kts | 41° |
| 2026-05-07 14:19 | 41.57417 | -72.15185 | 29672 ft | 570 kts | 41° |
| 2026-05-07 14:19 | 41.60042 | -72.11246 | 29096 ft | 565 kts | 41° |
| 2026-05-07 14:20 | 41.62642 | -72.07340 | 28584 ft | 560 kts | 41° |
| 2026-05-07 14:20 | 41.65215 | -72.03468 | 28091 ft | 554 kts | 41° |
| 2026-05-07 14:20 | 41.67760 | -71.99629 | 27585 ft | 549 kts | 41° |
| 2026-05-07 14:20 | 41.70279 | -71.95824 | 27139 ft | 544 kts | 41° |
| 2026-05-07 14:21 | 41.72776 | -71.92045 | 26743 ft | 539 kts | 42° |
| 2026-05-07 14:21 | 41.75245 | -71.88303 | 26345 ft | 534 kts | 42° |
| 2026-05-07 14:21 | 41.77691 | -71.84587 | 25963 ft | 530 kts | 42° |
| 2026-05-07 14:21 | 41.80117 | -71.80898 | 25557 ft | 526 kts | 43° |
| 2026-05-07 14:22 | 41.82459 | -71.77153 | 25167 ft | 523 kts | 45° |
| 2026-05-07 14:22 | 41.84685 | -71.73307 | 24798 ft | 520 kts | 48° |
| 2026-05-07 14:22 | 41.86806 | -71.69399 | 24426 ft | 517 kts | 50° |
| 2026-05-07 14:22 | 41.88871 | -71.65464 | 24068 ft | 513 kts | 50° |
| 2026-05-07 14:23 | 41.90907 | -71.61564 | 23703 ft | 508 kts | 50° |
| 2026-05-07 14:23 | 41.92945 | -71.57715 | 23322 ft | 503 kts | 50° |
| 2026-05-07 14:23 | 41.94987 | -71.53932 | 22896 ft | 498 kts | 49° |
| 2026-05-07 14:23 | 41.97032 | -71.50207 | 22455 ft | 493 kts | 49° |
| 2026-05-07 14:24 | 41.99066 | -71.46526 | 22041 ft | 488 kts | 49° |
| 2026-05-07 14:24 | 42.01081 | -71.42883 | 21626 ft | 483 kts | 49° |
| 2026-05-07 14:24 | 42.03072 | -71.39270 | 21218 ft | 479 kts | 50° |
| 2026-05-07 14:24 | 42.05035 | -71.35685 | 20813 ft | 474 kts | 50° |
| 2026-05-07 14:25 | 42.06976 | -71.32120 | 20407 ft | 470 kts | 51° |
| 2026-05-07 14:25 | 42.08895 | -71.28584 | 20012 ft | 465 kts | 51° |
| 2026-05-07 14:25 | 42.10791 | -71.25078 | 19624 ft | 461 kts | 51° |
| 2026-05-07 14:25 | 42.12668 | -71.21601 | 19238 ft | 457 kts | 51° |
| 2026-05-07 14:26 | 42.14531 | -71.18154 | 18861 ft | 453 kts | 52° |
| 2026-05-07 14:26 | 42.16376 | -71.14739 | 18486 ft | 449 kts | 52° |
| 2026-05-07 14:26 | 42.18204 | -71.11355 | 18114 ft | 445 kts | 52° |
| 2026-05-07 14:26 | 42.20019 | -71.07994 | 17687 ft | 441 kts | 52° |
| 2026-05-07 14:27 | 42.21793 | -71.04709 | 17267 ft | 437 kts | 52° |
| 2026-05-07 14:27 | 42.23596 | -71.01364 | 16832 ft | 434 kts | 52° |
| 2026-05-07 14:27 | 42.25369 | -70.98073 | 16420 ft | 432 kts | 52° |
| 2026-05-07 14:27 | 42.27127 | -70.94804 | 16010 ft | 429 kts | 52° |
| 2026-05-07 14:28 | 42.28849 | -70.91590 | 15623 ft | 426 kts | 52° |
| 2026-05-07 14:28 | 42.30580 | -70.88356 | 15221 ft | 424 kts | 52° |
| 2026-05-07 14:28 | 42.32304 | -70.85135 | 14832 ft | 422 kts | 52° |
| 2026-05-07 14:28 | 42.34038 | -70.81891 | 14437 ft | 419 kts | 52° |
| 2026-05-07 14:29 | 42.35741 | -70.78706 | 14049 ft | 417 kts | 52° |
| 2026-05-07 14:29 | 42.37414 | -70.75572 | 13773 ft | 402 kts | 52° |
| 2026-05-07 14:29 | 42.38998 | -70.72595 | 13496 ft | 391 kts | 52° |
| 2026-05-07 14:29 | 42.40596 | -70.69591 | 13069 ft | 386 kts | 52° |
| 2026-05-07 14:30 | 42.42244 | -70.66864 | 12648 ft | 373 kts | 42° |
| 2026-05-07 14:30 | 42.44017 | -70.64347 | 12236 ft | 367 kts | 42° |
| 2026-05-07 14:30 | 42.45761 | -70.61858 | 11836 ft | 362 kts | 42° |
| 2026-05-07 14:30 | 42.47481 | -70.59396 | 11429 ft | 358 kts | 42° |
| 2026-05-07 14:31 | 42.49182 | -70.56958 | 11031 ft | 354 kts | 43° |
| 2026-05-07 14:31 | 42.50932 | -70.54657 | 10642 ft | 347 kts | 33° |
| 2026-05-07 14:31 | 42.52930 | -70.52905 | 10258 ft | 339 kts | 20° |
| 2026-05-07 14:31 | 42.55020 | -70.51440 | 9890 ft | 338 kts | 21° |
| 2026-05-07 14:32 | 42.57081 | -70.49929 | 9564 ft | 335 kts | 22° |
| 2026-05-07 14:32 | 42.59126 | -70.48450 | 9221 ft | 330 kts | 18° |
| 2026-05-07 14:32 | 42.61256 | -70.47551 | 8879 ft | 313 kts | 0° |
| 2026-05-07 14:32 | 42.63365 | -70.47486 | 8540 ft | 294 kts | 345° |
| 2026-05-07 14:33 | 42.65293 | -70.48082 | 8198 ft | 276 kts | 332° |
| 2026-05-07 14:33 | 42.66978 | -70.49177 | 7875 ft | 263 kts | 321° |
| 2026-05-07 14:33 | 42.68540 | -70.50450 | 7543 ft | 261 kts | 322° |
| 2026-05-07 14:33 | 42.70090 | -70.51700 | 7217 ft | 258 kts | 323° |
| 2026-05-07 14:34 | 42.71629 | -70.52939 | 6886 ft | 256 kts | 323° |
| 2026-05-07 14:34 | 42.73159 | -70.54172 | 6538 ft | 255 kts | 324° |
| 2026-05-07 14:34 | 42.74686 | -70.55404 | 6140 ft | 255 kts | 325° |
| 2026-05-07 14:34 | 42.76212 | -70.56636 | 5776 ft | 253 kts | 326° |
| 2026-05-07 14:35 | 42.77706 | -70.57841 | 5520 ft | 246 kts | 326° |
| 2026-05-07 14:35 | 42.79162 | -70.59017 | 5262 ft | 240 kts | 326° |
| 2026-05-07 14:35 | 42.80580 | -70.60166 | 5006 ft | 234 kts | 326° |
| 2026-05-07 14:35 | 42.81965 | -70.61293 | 4744 ft | 229 kts | 327° |
| 2026-05-07 14:36 | 42.83319 | -70.62395 | 4487 ft | 224 kts | 327° |
| 2026-05-07 14:36 | 42.84647 | -70.63475 | 4223 ft | 220 kts | 327° |
| 2026-05-07 14:36 | 42.85944 | -70.64531 | 4013 ft | 215 kts | 327° |
| 2026-05-07 14:36 | 42.87221 | -70.65573 | 3807 ft | 213 kts | 327° |
| 2026-05-07 14:37 | 42.88486 | -70.66601 | 3598 ft | 211 kts | 327° |
| 2026-05-07 14:37 | 42.90998 | -70.68639 | 3188 ft | 209 kts | 327° |
| 2026-05-07 14:37 | 42.92235 | -70.69645 | 3042 ft | 203 kts | 327° |
| 2026-05-07 14:38 | 42.93419 | -70.70610 | 3000 ft | 192 kts | 327° |
| 2026-05-07 14:38 | 42.94555 | -70.71537 | 2881 ft | 191 kts | 327° |
| 2026-05-07 14:38 | 42.95686 | -70.72459 | 2596 ft | 193 kts | 327° |
| 2026-05-07 14:38 | 42.96840 | -70.73398 | 2331 ft | 192 kts | 327° |
| 2026-05-07 14:39 | 42.97972 | -70.74316 | 2063 ft | 187 kts | 326° |
| 2026-05-07 14:39 | 42.99078 | -70.75211 | 1834 ft | 180 kts | 326° |
| 2026-05-07 14:39 | 43.00117 | -70.76053 | 1575 ft | 168 kts | 326° |
| 2026-05-07 14:39 | 43.01086 | -70.76844 | 1340 ft | 157 kts | 327° |
| 2026-05-07 14:40 | 43.01991 | -70.77584 | 1143 ft | 148 kts | 326° |
| 2026-05-07 14:40 | 43.02833 | -70.78272 | 942 ft | 137 kts | 326° |
| 2026-05-07 14:40 | 43.03639 | -70.78934 | 771 ft | 134 kts | 326° |
| 2026-05-07 14:40 | 43.04447 | -70.79594 | 576 ft | 135 kts | 326° |
| 2026-05-07 14:41 | 43.05252 | -70.80252 | 402 ft | 135 kts | 326° |
| 2026-05-07 14:41 | 43.06061 | -70.80912 | 246 ft | 136 kts | 327° |
| 2026-05-07 14:41 | 43.06866 | -70.81567 | 101 ft | 129 kts | 328° |
| 2026-05-07 14:41 | 43.07325 | -70.81943 | 102 ft | 101 kts | 328° |
| 2026-05-07 14:42 | 43.07813 | -70.82342 | 102 ft | 71 kts | 329° |
| 2026-05-07 14:42 | 43.08164 | -70.82629 | 104 ft | 35 kts | 329° |
| 2026-05-07 14:42 | 43.08287 | -70.82705 | 105 ft | 14 kts | 18° |
| 2026-05-07 14:42 | 43.08339 | -70.82593 | 102 ft | 14 kts | 60° |
| 2026-05-07 14:43 | 43.08389 | -70.82479 | 102 ft | 12 kts | 58° |
| 2026-05-07 14:43 | 43.08412 | -70.82426 | 102 ft | 7 kts | 63° |
| 2026-05-07 14:43 | 43.08397 | -70.82364 | 103 ft | 9 kts | 141° |
| 2026-05-07 14:43 | 43.08330 | -70.82308 | 103 ft | 11 kts | 149° |
| 2026-05-07 14:44 | 43.08270 | -70.82258 | 103 ft | 9 kts | 149° |
| 2026-05-07 14:44 | 43.08215 | -70.82213 | 103 ft | 10 kts | 149° |
| 2026-05-07 14:44 | 43.08159 | -70.82166 | 102 ft | 9 kts | 143° |
| 2026-05-07 14:44 | 43.08161 | -70.82089 | 103 ft | 9 kts | 60° |
| 2026-05-07 14:45 | 43.08190 | -70.82021 | 102 ft | 8 kts | 60° |
| 2026-05-07 14:45 | 43.08213 | -70.81959 | 102 ft | 7 kts | 75° |
| 2026-05-07 14:45 | 43.08195 | -70.81910 | 103 ft | 5 kts | 141° |
| 2026-05-07 14:45 | 43.08166 | -70.81884 | 103 ft | 5 kts | 147° |
| 2026-05-07 14:46 | 43.08153 | -70.81830 | 103 ft | 6 kts | 60° |
| 2026-05-07 14:46 | 43.08176 | -70.81795 | 102 ft | 2 kts | 47° |
| 2026-05-07 14:46 | 43.08181 | -70.81787 | 103 ft | 0 kts | 47° |